Terminal Aerodrome Forecast
Issued by NWS

Home | Current Version | Previous Version | Text Only | Print | Product List | Glossary On
Versions: 1 2 3 4 5 6 7 8 9 10 11 12 13
000
FTUS42 KMHX 070532
TAFOAJ
TAF
KOAJ 070532Z 0706/0806 03005KT P6SM BKN150
     FM070900 03010KT P6SM SCT035 BKN100
     FM071400 05012G20KT P6SM SHRA SCT020 BKN040
     FM071800 04012G20KT 5SM SHRA BKN025
     FM080300 02012KT P6SM VCSH OVC015
      AMD LTD TO CLD VIS AND WIND=

USA.gov is the U.S. government's official web portal to all federal, state and local government web resources and services.